sensor_id;sensor_type;location;lat;lon;timestamp;pressure;altitude;pressure_sealevel;temperature;humidity
56568;BME280;42456;49.956;20.004;2023-10-08T00:00:06;97952.57;;;16.45;76.25
56568;BME280;42456;49.956;20.004;2023-10-08T00:02:47;97950.16;;;16.45;76.23
56568;BME280;42456;49.956;20.004;2023-10-08T00:05:14;97947.14;;;16.45;76.06
56568;BME280;42456;49.956;20.004;2023-10-08T00:07:43;97948.21;;;16.45;75.82
56568;BME280;42456;49.956;20.004;2023-10-08T00:10:10;97943.48;;;16.45;75.97
56568;BME280;42456;49.956;20.004;2023-10-08T00:12:37;97940.54;;;16.44;75.90
56568;BME280;42456;49.956;20.004;2023-10-08T00:15:04;97946.90;;;16.44;75.99
56568;BME280;42456;49.956;20.004;2023-10-08T00:17:33;97947.04;;;16.43;75.90
56568;BME280;42456;49.956;20.004;2023-10-08T00:20:01;97945.07;;;16.42;76.18
56568;BME280;42456;49.956;20.004;2023-10-08T00:22:30;97939.48;;;16.41;76.21
56568;BME280;42456;49.956;20.004;2023-10-08T00:25:02;97945.05;;;16.40;76.28
56568;BME280;42456;49.956;20.004;2023-10-08T00:27:38;97947.27;;;16.38;76.44
56568;BME280;42456;49.956;20.004;2023-10-08T00:30:07;97947.02;;;16.36;76.26
56568;BME280;42456;49.956;20.004;2023-10-08T00:32:44;97947.55;;;16.33;76.43
56568;BME280;42456;49.956;20.004;2023-10-08T00:35:12;97952.18;;;16.32;76.70
56568;BME280;42456;49.956;20.004;2023-10-08T00:37:40;97958.27;;;16.29;76.93
56568;BME280;42456;49.956;20.004;2023-10-08T00:40:08;97966.94;;;16.27;77.13
56568;BME280;42456;49.956;20.004;2023-10-08T00:42:39;97971.09;;;16.24;77.30
56568;BME280;42456;49.956;20.004;2023-10-08T00:45:12;97965.39;;;16.19;77.76
56568;BME280;42456;49.956;20.004;2023-10-08T00:47:43;97966.66;;;16.15;77.70
56568;BME280;42456;49.956;20.004;2023-10-08T00:50:10;97964.91;;;16.11;78.11
56568;BME280;42456;49.956;20.004;2023-10-08T00:52:50;97966.66;;;16.08;78.45
56568;BME280;42456;49.956;20.004;2023-10-08T00:55:27;97964.21;;;16.04;78.90
56568;BME280;42456;49.956;20.004;2023-10-08T00:57:59;97960.99;;;16.00;79.32
56568;BME280;42456;49.956;20.004;2023-10-08T01:00:35;97959.16;;;15.95;79.97
56568;BME280;42456;49.956;20.004;2023-10-08T01:03:05;97961.42;;;15.91;80.37
56568;BME280;42456;49.956;20.004;2023-10-08T01:05:42;97966.81;;;15.87;80.65
56568;BME280;42456;49.956;20.004;2023-10-08T01:08:14;97965.58;;;15.81;81.31
56568;BME280;42456;49.956;20.004;2023-10-08T01:10:50;97968.84;;;15.75;81.43
56568;BME280;42456;49.956;20.004;2023-10-08T01:13:30;97962.43;;;15.71;82.03
56568;BME280;42456;49.956;20.004;2023-10-08T01:16:03;97967.05;;;15.68;82.33
56568;BME280;42456;49.956;20.004;2023-10-08T01:18:30;97967.02;;;15.65;82.66
56568;BME280;42456;49.956;20.004;2023-10-08T01:21:02;97967.27;;;15.61;82.87
56568;BME280;42456;49.956;20.004;2023-10-08T01:23:35;97965.14;;;15.57;83.42
56568;BME280;42456;49.956;20.004;2023-10-08T01:26:03;97960.15;;;15.55;83.95
56568;BME280;42456;49.956;20.004;2023-10-08T01:28:38;97959.59;;;15.54;84.19
56568;BME280;42456;49.956;20.004;2023-10-08T01:31:05;97962.97;;;15.51;84.49
56568;BME280;42456;49.956;20.004;2023-10-08T01:33:34;97959.60;;;15.49;84.75
56568;BME280;42456;49.956;20.004;2023-10-08T01:36:14;97971.02;;;15.46;84.96
56568;BME280;42456;49.956;20.004;2023-10-08T01:38:41;97969.39;;;15.45;85.44
56568;BME280;42456;49.956;20.004;2023-10-08T01:41:15;97977.41;;;15.43;85.42
56568;BME280;42456;49.956;20.004;2023-10-08T01:43:47;97980.84;;;15.38;85.53
56568;BME280;42456;49.956;20.004;2023-10-08T01:46:14;97982.69;;;15.34;86.17
56568;BME280;42456;49.956;20.004;2023-10-08T01:48:42;97984.91;;;15.27;85.79
56568;BME280;42456;49.956;20.004;2023-10-08T01:51:12;97999.38;;;15.15;85.37
56568;BME280;42456;49.956;20.004;2023-10-08T01:53:53;98006.19;;;14.96;84.17
56568;BME280;42456;49.956;20.004;2023-10-08T01:56:24;98001.55;;;14.73;83.31
56568;BME280;42456;49.956;20.004;2023-10-08T01:58:51;98007.55;;;14.53;83.31
56568;BME280;42456;49.956;20.004;2023-10-08T02:01:21;98021.86;;;14.32;82.85
56568;BME280;42456;49.956;20.004;2023-10-08T02:03:48;98018.28;;;14.11;82.92
56568;BME280;42456;49.956;20.004;2023-10-08T02:06:15;98020.06;;;13.97;83.12
56568;BME280;42456;49.956;20.004;2023-10-08T02:08:42;98029.61;;;13.84;83.09
56568;BME280;42456;49.956;20.004;2023-10-08T02:11:09;98021.45;;;13.70;83.29
56568;BME280;42456;49.956;20.004;2023-10-08T02:13:37;98005.09;;;13.60;83.49
56568;BME280;42456;49.956;20.004;2023-10-08T02:16:04;97999.02;;;13.50;83.86
56568;BME280;42456;49.956;20.004;2023-10-08T02:18:31;98012.85;;;13.44;84.12
56568;BME280;42456;49.956;20.004;2023-10-08T02:20:59;98026.56;;;13.36;83.94
56568;BME280;42456;49.956;20.004;2023-10-08T02:23:26;98048.39;;;13.21;83.72
56568;BME280;42456;49.956;20.004;2023-10-08T02:25:54;98039.63;;;13.06;83.79
56568;BME280;42456;49.956;20.004;2023-10-08T02:28:21;98032.55;;;12.92;83.73
56568;BME280;42456;49.956;20.004;2023-10-08T02:30:51;98029.23;;;12.79;83.90
56568;BME280;42456;49.956;20.004;2023-10-08T02:33:18;98038.39;;;12.66;83.81
56568;BME280;42456;49.956;20.004;2023-10-08T02:35:46;98036.93;;;12.55;83.94
56568;BME280;42456;49.956;20.004;2023-10-08T02:38:16;98041.73;;;12.47;83.96
56568;BME280;42456;49.956;20.004;2023-10-08T02:40:44;98043.89;;;12.35;83.69
56568;BME280;42456;49.956;20.004;2023-10-08T02:43:14;98056.17;;;12.25;84.06
56568;BME280;42456;49.956;20.004;2023-10-08T02:45:43;98060.93;;;12.16;84.29
56568;BME280;42456;49.956;20.004;2023-10-08T02:48:15;98054.42;;;12.07;84.30
56568;BME280;42456;49.956;20.004;2023-10-08T02:50:43;98066.16;;;11.99;84.60
56568;BME280;42456;49.956;20.004;2023-10-08T02:53:13;98080.41;;;11.89;84.50
56568;BME280;42456;49.956;20.004;2023-10-08T02:55:46;98071.10;;;11.76;84.37
56568;BME280;42456;49.956;20.004;2023-10-08T02:58:14;98075.34;;;11.66;84.57
56568;BME280;42456;49.956;20.004;2023-10-08T03:00:43;98064.77;;;11.58;84.77
56568;BME280;42456;49.956;20.004;2023-10-08T03:03:11;98065.79;;;11.51;85.00
56568;BME280;42456;49.956;20.004;2023-10-08T03:05:52;98060.20;;;11.47;85.28
56568;BME280;42456;49.956;20.004;2023-10-08T03:08:19;98064.25;;;11.43;85.54
56568;BME280;42456;49.956;20.004;2023-10-08T03:10:51;98077.48;;;11.41;85.77
56568;BME280;42456;49.956;20.004;2023-10-08T03:13:29;98088.55;;;11.38;85.70
56568;BME280;42456;49.956;20.004;2023-10-08T03:15:56;98089.62;;;11.33;85.68
56568;BME280;42456;49.956;20.004;2023-10-08T03:18:30;98086.20;;;11.27;85.64
56568;BME280;42456;49.956;20.004;2023-10-08T03:21:04;98083.23;;;11.20;85.81
56568;BME280;42456;49.956;20.004;2023-10-08T03:23:32;98076.67;;;11.15;86.01
56568;BME280;42456;49.956;20.004;2023-10-08T03:26:03;98062.67;;;11.10;86.17
56568;BME280;42456;49.956;20.004;2023-10-08T03:29:04;98069.98;;;11.06;86.46
56568;BME280;42456;49.956;20.004;2023-10-08T03:31:51;98072.55;;;11.02;86.57
56568;BME280;42456;49.956;20.004;2023-10-08T03:34:18;98071.98;;;10.98;86.54
56568;BME280;42456;49.956;20.004;2023-10-08T03:36:47;98070.77;;;10.97;86.41
56568;BME280;42456;49.956;20.004;2023-10-08T03:39:17;98080.85;;;10.95;86.62
56568;BME280;42456;49.956;20.004;2023-10-08T03:41:46;98083.85;;;10.93;86.85
56568;BME280;42456;49.956;20.004;2023-10-08T03:44:27;98082.46;;;10.92;87.12
56568;BME280;42456;49.956;20.004;2023-10-08T03:46:56;98080.67;;;10.92;86.96
56568;BME280;42456;49.956;20.004;2023-10-08T03:49:23;98087.02;;;10.90;86.92
56568;BME280;42456;49.956;20.004;2023-10-08T03:51:51;98089.80;;;10.91;87.09
56568;BME280;42456;49.956;20.004;2023-10-08T03:54:19;98093.00;;;10.90;87.03
56568;BME280;42456;49.956;20.004;2023-10-08T03:56:57;98109.35;;;10.88;87.15
56568;BME280;42456;49.956;20.004;2023-10-08T03:59:24;98129.42;;;10.85;87.25
56568;BME280;42456;49.956;20.004;2023-10-08T04:02:07;98141.36;;;10.84;87.43
56568;BME280;42456;49.956;20.004;2023-10-08T04:04:42;98155.11;;;10.83;87.54
56568;BME280;42456;49.956;20.004;2023-10-08T04:07:21;98164.55;;;10.81;87.41
56568;BME280;42456;49.956;20.004;2023-10-08T04:09:53;98162.13;;;10.75;87.24
56568;BME280;42456;49.956;20.004;2023-10-08T04:12:40;98161.03;;;10.68;87.31
56568;BME280;42456;49.956;20.004;2023-10-08T04:15:12;98172.77;;;10.64;87.29
56568;BME280;42456;49.956;20.004;2023-10-08T04:17:44;98181.92;;;10.57;87.17
56568;BME280;42456;49.956;20.004;2023-10-08T04:20:13;98181.37;;;10.52;87.39
56568;BME280;42456;49.956;20.004;2023-10-08T04:23:02;98185.48;;;10.50;87.58
56568;BME280;42456;49.956;20.004;2023-10-08T04:25:31;98187.25;;;10.47;87.54
56568;BME280;42456;49.956;20.004;2023-10-08T04:27:59;98196.36;;;10.44;87.80
56568;BME280;42456;49.956;20.004;2023-10-08T04:30:32;98207.69;;;10.41;88.07
56568;BME280;42456;49.956;20.004;2023-10-08T04:33:00;98208.07;;;10.41;88.27
56568;BME280;42456;49.956;20.004;2023-10-08T04:35:35;98212.41;;;10.38;88.16
56568;BME280;42456;49.956;20.004;2023-10-08T04:38:18;98232.15;;;10.34;88.00
56568;BME280;42456;49.956;20.004;2023-10-08T04:40:45;98244.08;;;10.29;87.86
56568;BME280;42456;49.956;20.004;2023-10-08T04:43:16;98252.03;;;10.23;88.00
56568;BME280;42456;49.956;20.004;2023-10-08T04:45:53;98253.23;;;10.20;88.18
56568;BME280;42456;49.956;20.004;2023-10-08T04:48:20;98262.39;;;10.19;88.25
56568;BME280;42456;49.956;20.004;2023-10-08T04:50:48;98263.35;;;10.18;88.48
56568;BME280;42456;49.956;20.004;2023-10-08T04:55:59;98256.61;;;10.19;88.75
56568;BME280;42456;49.956;20.004;2023-10-08T04:58:34;98263.73;;;10.18;88.76
56568;BME280;42456;49.956;20.004;2023-10-08T05:01:04;98270.36;;;10.16;88.60
56568;BME280;42456;49.956;20.004;2023-10-08T05:06:28;98278.54;;;10.16;88.65
56568;BME280;42456;49.956;20.004;2023-10-08T05:09:10;98284.03;;;10.17;88.73
56568;BME280;42456;49.956;20.004;2023-10-08T05:11:51;98298.96;;;10.18;88.84
56568;BME280;42456;49.956;20.004;2023-10-08T05:14:23;98310.15;;;10.17;88.69
56568;BME280;42456;49.956;20.004;2023-10-08T05:17:02;98309.65;;;10.16;88.59
56568;BME280;42456;49.956;20.004;2023-10-08T05:19:50;98311.67;;;10.15;88.68
56568;BME280;42456;49.956;20.004;2023-10-08T05:22:43;98333.20;;;10.14;88.69
56568;BME280;42456;49.956;20.004;2023-10-08T05:25:22;98339.80;;;10.13;88.98
56568;BME280;42456;49.956;20.004;2023-10-08T05:28:01;98341.22;;;10.13;88.74
56568;BME280;42456;49.956;20.004;2023-10-08T05:30:36;98346.37;;;10.13;88.86
56568;BME280;42456;49.956;20.004;2023-10-08T05:33:08;98349.59;;;10.15;88.99
56568;BME280;42456;49.956;20.004;2023-10-08T05:35:36;98346.58;;;10.16;88.97
56568;BME280;42456;49.956;20.004;2023-10-08T05:38:11;98347.27;;;10.18;89.00
56568;BME280;42456;49.956;20.004;2023-10-08T05:40:53;98332.90;;;10.20;89.12
56568;BME280;42456;49.956;20.004;2023-10-08T05:43:23;98333.19;;;10.21;89.08
56568;BME280;42456;49.956;20.004;2023-10-08T05:48:45;98339.55;;;10.20;88.93
56568;BME280;42456;49.956;20.004;2023-10-08T05:51:28;98353.23;;;10.21;89.09
56568;BME280;42456;49.956;20.004;2023-10-08T05:54:12;98393.25;;;10.21;89.07
56568;BME280;42456;49.956;20.004;2023-10-08T05:57:00;98397.43;;;10.22;89.00
56568;BME280;42456;49.956;20.004;2023-10-08T05:59:43;98393.22;;;10.23;89.13
56568;BME280;42456;49.956;20.004;2023-10-08T06:02:30;98400.58;;;10.23;88.89
56568;BME280;42456;49.956;20.004;2023-10-08T06:05:03;98411.85;;;10.22;88.88
56568;BME280;42456;49.956;20.004;2023-10-08T06:07:44;98420.58;;;10.21;88.84
56568;BME280;42456;49.956;20.004;2023-10-08T06:10:15;98424.73;;;10.19;88.76
56568;BME280;42456;49.956;20.004;2023-10-08T06:12:58;98426.48;;;10.17;88.65
56568;BME280;42456;49.956;20.004;2023-10-08T06:18:24;98454.27;;;10.15;88.96
56568;BME280;42456;49.956;20.004;2023-10-08T06:23:29;98439.85;;;10.16;89.01
56568;BME280;42456;49.956;20.004;2023-10-08T06:25:59;98435.84;;;10.14;88.75
56568;BME280;42456;49.956;20.004;2023-10-08T06:28:43;98448.02;;;10.13;88.62
56568;BME280;42456;49.956;20.004;2023-10-08T06:31:13;98460.55;;;10.13;88.65
56568;BME280;42456;49.956;20.004;2023-10-08T06:33:44;98460.92;;;10.11;88.47
56568;BME280;42456;49.956;20.004;2023-10-08T06:36:11;98466.14;;;10.11;88.66
56568;BME280;42456;49.956;20.004;2023-10-08T06:38:40;98484.98;;;10.12;88.81
56568;BME280;42456;49.956;20.004;2023-10-08T06:41:12;98490.42;;;10.11;88.63
56568;BME280;42456;49.956;20.004;2023-10-08T06:43:44;98496.05;;;10.10;88.59
56568;BME280;42456;49.956;20.004;2023-10-08T06:46:16;98496.00;;;10.10;88.52
56568;BME280;42456;49.956;20.004;2023-10-08T06:48:46;98501.64;;;10.11;88.68
56568;BME280;42456;49.956;20.004;2023-10-08T06:51:13;98504.34;;;10.12;88.41
56568;BME280;42456;49.956;20.004;2023-10-08T06:53:41;98506.20;;;10.12;88.64
56568;BME280;42456;49.956;20.004;2023-10-08T06:56:08;98507.09;;;10.13;88.58
56568;BME280;42456;49.956;20.004;2023-10-08T06:58:39;98504.20;;;10.12;88.42
56568;BME280;42456;49.956;20.004;2023-10-08T07:01:12;98506.04;;;10.14;88.68
56568;BME280;42456;49.956;20.004;2023-10-08T07:03:40;98514.52;;;10.17;88.75
56568;BME280;42456;49.956;20.004;2023-10-08T07:06:07;98520.56;;;10.18;88.77
56568;BME280;42456;49.956;20.004;2023-10-08T07:08:44;98524.10;;;10.20;88.77
56568;BME280;42456;49.956;20.004;2023-10-08T07:11:13;98523.76;;;10.20;88.90
56568;BME280;42456;49.956;20.004;2023-10-08T07:13:40;98533.00;;;10.21;89.03
56568;BME280;42456;49.956;20.004;2023-10-08T07:16:09;98540.66;;;10.23;89.21
56568;BME280;42456;49.956;20.004;2023-10-08T07:18:40;98535.27;;;10.25;89.37
56568;BME280;42456;49.956;20.004;2023-10-08T07:21:08;98516.30;;;10.28;89.32
56568;BME280;42456;49.956;20.004;2023-10-08T07:23:39;98531.88;;;10.31;89.62
56568;BME280;42456;49.956;20.004;2023-10-08T07:26:20;98545.00;;;10.34;89.34
56568;BME280;42456;49.956;20.004;2023-10-08T07:28:50;98543.26;;;10.37;89.50
56568;BME280;42456;49.956;20.004;2023-10-08T07:31:23;98546.58;;;10.37;89.37
56568;BME280;42456;49.956;20.004;2023-10-08T07:33:53;98559.73;;;10.37;89.33
56568;BME280;42456;49.956;20.004;2023-10-08T07:36:25;98557.14;;;10.38;89.37
56568;BME280;42456;49.956;20.004;2023-10-08T07:38:53;98556.69;;;10.40;89.41
56568;BME280;42456;49.956;20.004;2023-10-08T07:41:20;98557.70;;;10.44;89.67
56568;BME280;42456;49.956;20.004;2023-10-08T07:43:48;98557.06;;;10.51;89.71
56568;BME280;42456;49.956;20.004;2023-10-08T07:46:25;98546.66;;;10.61;89.80
56568;BME280;42456;49.956;20.004;2023-10-08T07:48:54;98559.78;;;10.73;89.88
56568;BME280;42456;49.956;20.004;2023-10-08T07:51:21;98570.04;;;10.83;89.97
56568;BME280;42456;49.956;20.004;2023-10-08T07:53:49;98577.25;;;10.91;89.64
56568;BME280;42456;49.956;20.004;2023-10-08T07:56:25;98582.73;;;10.97;89.61
56568;BME280;42456;49.956;20.004;2023-10-08T07:58:53;98577.71;;;11.00;89.17
56568;BME280;42456;49.956;20.004;2023-10-08T08:01:24;98581.67;;;11.01;89.05
56568;BME280;42456;49.956;20.004;2023-10-08T08:03:53;98587.04;;;11.04;89.01
56568;BME280;42456;49.956;20.004;2023-10-08T08:06:21;98594.63;;;11.11;88.94
56568;BME280;42456;49.956;20.004;2023-10-08T08:08:49;98595.86;;;11.19;88.82
56568;BME280;42456;49.956;20.004;2023-10-08T08:11:16;98594.93;;;11.30;88.78
56568;BME280;42456;49.956;20.004;2023-10-08T08:13:46;98593.86;;;11.44;88.57
56568;BME280;42456;49.956;20.004;2023-10-08T08:16:15;98595.27;;;11.57;88.67
56568;BME280;42456;49.956;20.004;2023-10-08T08:18:48;98596.08;;;11.69;88.59
56568;BME280;42456;49.956;20.004;2023-10-08T08:21:16;98596.05;;;11.74;88.50
56568;BME280;42456;49.956;20.004;2023-10-08T08:23:44;98597.41;;;11.78;88.00
56568;BME280;42456;49.956;20.004;2023-10-08T08:26:23;98599.26;;;11.88;87.84
56568;BME280;42456;49.956;20.004;2023-10-08T08:28:54;98600.68;;;12.05;87.73
56568;BME280;42456;49.956;20.004;2023-10-08T08:31:24;98603.55;;;12.13;87.16
56568;BME280;42456;49.956;20.004;2023-10-08T08:33:58;98612.41;;;12.08;86.45
56568;BME280;42456;49.956;20.004;2023-10-08T08:36:30;98619.41;;;11.99;86.03
56568;BME280;42456;49.956;20.004;2023-10-08T08:38:58;98625.90;;;11.92;86.04
56568;BME280;42456;49.956;20.004;2023-10-08T08:41:25;98624.73;;;11.88;86.00
56568;BME280;42456;49.956;20.004;2023-10-08T08:43:54;98632.70;;;11.91;85.91
56568;BME280;42456;49.956;20.004;2023-10-08T08:49:07;98631.14;;;12.12;85.93
56568;BME280;42456;49.956;20.004;2023-10-08T08:51:35;98628.87;;;12.26;85.75
56568;BME280;42456;49.956;20.004;2023-10-08T08:54:03;98632.63;;;12.28;85.02
56568;BME280;42456;49.956;20.004;2023-10-08T08:56:34;98637.27;;;12.26;84.65
56568;BME280;42456;49.956;20.004;2023-10-08T08:59:04;98631.04;;;12.24;84.70
56568;BME280;42456;49.956;20.004;2023-10-08T09:01:32;98635.67;;;12.23;84.41
56568;BME280;42456;49.956;20.004;2023-10-08T09:04:00;98643.52;;;12.24;84.36
56568;BME280;42456;49.956;20.004;2023-10-08T09:06:28;98648.73;;;12.26;83.67
56568;BME280;42456;49.956;20.004;2023-10-08T09:08:55;98646.61;;;12.29;83.79
56568;BME280;42456;49.956;20.004;2023-10-08T09:11:42;98649.05;;;12.41;83.84
56568;BME280;42456;49.956;20.004;2023-10-08T09:14:09;98652.70;;;12.52;84.02
56568;BME280;42456;49.956;20.004;2023-10-08T09:16:40;98651.80;;;12.61;83.80
56568;BME280;42456;49.956;20.004;2023-10-08T09:19:06;98652.44;;;12.68;82.14
56568;BME280;42456;49.956;20.004;2023-10-08T09:21:38;98657.77;;;12.71;81.69
56568;BME280;42456;49.956;20.004;2023-10-08T09:24:07;98661.70;;;12.78;81.41
56568;BME280;42456;49.956;20.004;2023-10-08T09:26:38;98660.66;;;12.77;79.80
56568;BME280;42456;49.956;20.004;2023-10-08T09:29:06;98668.25;;;12.67;78.33
56568;BME280;42456;49.956;20.004;2023-10-08T09:31:34;98666.39;;;12.62;77.54
56568;BME280;42456;49.956;20.004;2023-10-08T09:34:05;98664.79;;;12.60;76.79
56568;BME280;42456;49.956;20.004;2023-10-08T09:36:32;98664.05;;;12.61;75.65
56568;BME280;42456;49.956;20.004;2023-10-08T09:39:03;98666.46;;;12.58;75.37
56568;BME280;42456;49.956;20.004;2023-10-08T09:41:34;98671.11;;;12.67;75.84
56568;BME280;42456;49.956;20.004;2023-10-08T09:44:06;98676.00;;;12.76;75.70
56568;BME280;42456;49.956;20.004;2023-10-08T09:46:37;98673.20;;;12.91;75.79
56568;BME280;42456;49.956;20.004;2023-10-08T09:49:07;98677.07;;;13.09;75.65
56568;BME280;42456;49.956;20.004;2023-10-08T09:51:40;98679.48;;;13.21;75.56
56568;BME280;42456;49.956;20.004;2023-10-08T09:54:14;98693.84;;;13.21;73.50
56568;BME280;42456;49.956;20.004;2023-10-08T09:56:42;98698.06;;;13.18;72.70
56568;BME280;42456;49.956;20.004;2023-10-08T09:59:13;98701.34;;;13.15;71.46
56568;BME280;42456;49.956;20.004;2023-10-08T10:01:42;98706.89;;;13.14;71.26
56568;BME280;42456;49.956;20.004;2023-10-08T10:04:23;98707.98;;;13.11;70.39
56568;BME280;42456;49.956;20.004;2023-10-08T10:07:09;98708.34;;;13.07;69.91
56568;BME280;42456;49.956;20.004;2023-10-08T10:09:42;98707.80;;;13.05;68.34
56568;BME280;42456;49.956;20.004;2023-10-08T10:12:11;98708.56;;;13.05;67.33
56568;BME280;42456;49.956;20.004;2023-10-08T10:14:42;98710.59;;;13.06;66.32
56568;BME280;42456;49.956;20.004;2023-10-08T10:20:00;98712.06;;;13.10;64.65
56568;BME280;42456;49.956;20.004;2023-10-08T10:22:34;98714.92;;;13.15;63.23
56568;BME280;42456;49.956;20.004;2023-10-08T10:25:03;98714.48;;;13.20;63.09
56568;BME280;42456;49.956;20.004;2023-10-08T10:30:18;98722.77;;;13.28;61.49
56568;BME280;42456;49.956;20.004;2023-10-08T10:32:53;98725.45;;;13.28;59.56
56568;BME280;42456;49.956;20.004;2023-10-08T10:35:20;98724.56;;;13.26;60.05
56568;BME280;42456;49.956;20.004;2023-10-08T10:37:47;98726.02;;;13.25;58.90
56568;BME280;42456;49.956;20.004;2023-10-08T10:40:25;98727.67;;;13.27;59.68
56568;BME280;42456;49.956;20.004;2023-10-08T10:43:07;98736.70;;;13.29;58.32
56568;BME280;42456;49.956;20.004;2023-10-08T10:45:35;98739.14;;;13.28;57.82
56568;BME280;42456;49.956;20.004;2023-10-08T10:48:13;98743.10;;;13.20;57.88
56568;BME280;42456;49.956;20.004;2023-10-08T10:50:48;98743.60;;;13.21;58.32
56568;BME280;42456;49.956;20.004;2023-10-08T10:53:32;98739.90;;;13.28;58.18
56568;BME280;42456;49.956;20.004;2023-10-08T10:55:59;98743.86;;;13.30;57.44
56568;BME280;42456;49.956;20.004;2023-10-08T10:58:31;98749.21;;;13.34;57.06
56568;BME280;42456;49.956;20.004;2023-10-08T11:01:05;98747.39;;;13.41;57.28
56568;BME280;42456;49.956;20.004;2023-10-08T11:03:51;98744.85;;;13.46;56.39
56568;BME280;42456;49.956;20.004;2023-10-08T11:06:20;98750.16;;;13.46;54.42
56568;BME280;42456;49.956;20.004;2023-10-08T11:08:52;98757.55;;;13.39;54.78
56568;BME280;42456;49.956;20.004;2023-10-08T11:11:26;98755.36;;;13.35;55.22
56568;BME280;42456;49.956;20.004;2023-10-08T11:13:58;98762.79;;;13.34;55.71
56568;BME280;42456;49.956;20.004;2023-10-08T11:16:28;98761.94;;;13.32;55.64
56568;BME280;42456;49.956;20.004;2023-10-08T11:18:58;98764.97;;;13.29;55.65
56568;BME280;42456;49.956;20.004;2023-10-08T11:21:28;98762.01;;;13.36;56.36
56568;BME280;42456;49.956;20.004;2023-10-08T11:24:00;98764.06;;;13.42;55.96
56568;BME280;42456;49.956;20.004;2023-10-08T11:26:36;98761.29;;;13.48;55.68
56568;BME280;42456;49.956;20.004;2023-10-08T11:29:07;98758.12;;;13.56;55.42
56568;BME280;42456;49.956;20.004;2023-10-08T11:31:42;98768.27;;;13.61;54.75
56568;BME280;42456;49.956;20.004;2023-10-08T11:34:11;98767.66;;;13.63;54.44
56568;BME280;42456;49.956;20.004;2023-10-08T11:36:40;98771.70;;;13.64;55.17
56568;BME280;42456;49.956;20.004;2023-10-08T11:39:20;98773.70;;;13.66;54.99
56568;BME280;42456;49.956;20.004;2023-10-08T11:44:23;98770.22;;;13.75;54.77
56568;BME280;42456;49.956;20.004;2023-10-08T11:46:57;98775.15;;;13.80;54.57
56568;BME280;42456;49.956;20.004;2023-10-08T11:49:31;98779.64;;;13.82;53.70
56568;BME280;42456;49.956;20.004;2023-10-08T11:52:03;98782.16;;;13.86;54.53
56568;BME280;42456;49.956;20.004;2023-10-08T11:54:30;98784.74;;;13.92;54.06
56568;BME280;42456;49.956;20.004;2023-10-08T11:57:00;98785.19;;;13.94;53.70
56568;BME280;42456;49.956;20.004;2023-10-08T11:59:29;98781.55;;;13.91;52.95
56568;BME280;42456;49.956;20.004;2023-10-08T12:02:11;98783.92;;;13.88;52.96
56568;BME280;42456;49.956;20.004;2023-10-08T12:04:43;98791.09;;;13.83;52.79
56568;BME280;42456;49.956;20.004;2023-10-08T12:07:15;98792.30;;;13.77;52.88
56568;BME280;42456;49.956;20.004;2023-10-08T12:09:44;98793.02;;;13.76;52.58
56568;BME280;42456;49.956;20.004;2023-10-08T12:12:16;98794.39;;;13.78;52.61
56568;BME280;42456;49.956;20.004;2023-10-08T12:14:45;98796.30;;;13.84;53.10
56568;BME280;42456;49.956;20.004;2023-10-08T12:17:14;98803.45;;;13.92;52.84
56568;BME280;42456;49.956;20.004;2023-10-08T12:19:43;98807.58;;;13.95;52.55
56568;BME280;42456;49.956;20.004;2023-10-08T12:22:11;98804.86;;;13.95;51.88
56568;BME280;42456;49.956;20.004;2023-10-08T12:24:44;98808.09;;;13.94;51.44
56568;BME280;42456;49.956;20.004;2023-10-08T12:27:11;98817.95;;;13.92;51.10
56568;BME280;42456;49.956;20.004;2023-10-08T12:29:39;98813.80;;;13.87;50.59
56568;BME280;42456;49.956;20.004;2023-10-08T12:32:06;98813.19;;;13.83;50.64
56568;BME280;42456;49.956;20.004;2023-10-08T12:34:44;98818.63;;;13.80;50.49
56568;BME280;42456;49.956;20.004;2023-10-08T12:37:11;98817.29;;;13.76;50.48
56568;BME280;42456;49.956;20.004;2023-10-08T12:39:42;98819.81;;;13.80;50.82
56568;BME280;42456;49.956;20.004;2023-10-08T12:42:27;98818.89;;;13.85;50.40
56568;BME280;42456;49.956;20.004;2023-10-08T12:44:54;98813.99;;;13.87;50.33
56568;BME280;42456;49.956;20.004;2023-10-08T12:47:24;98813.11;;;13.90;50.10
56568;BME280;42456;49.956;20.004;2023-10-08T12:49:56;98810.91;;;13.91;50.14
56568;BME280;42456;49.956;20.004;2023-10-08T12:52:25;98816.42;;;13.94;50.33
56568;BME280;42456;49.956;20.004;2023-10-08T12:54:55;98821.77;;;13.97;50.21
56568;BME280;42456;49.956;20.004;2023-10-08T12:57:22;98822.02;;;13.98;49.17
56568;BME280;42456;49.956;20.004;2023-10-08T12:59:59;98820.19;;;13.98;48.94
56568;BME280;42456;49.956;20.004;2023-10-08T13:02:26;98826.05;;;13.98;48.44
56568;BME280;42456;49.956;20.004;2023-10-08T13:04:55;98821.88;;;13.98;48.48
56568;BME280;42456;49.956;20.004;2023-10-08T13:07:25;98826.52;;;13.98;48.17
56568;BME280;42456;49.956;20.004;2023-10-08T13:09:53;98831.55;;;13.99;48.47
56568;BME280;42456;49.956;20.004;2023-10-08T13:12:20;98824.23;;;13.97;48.41
56568;BME280;42456;49.956;20.004;2023-10-08T13:14:48;98829.67;;;13.93;48.44
56568;BME280;42456;49.956;20.004;2023-10-08T13:17:15;98831.73;;;13.91;48.53
56568;BME280;42456;49.956;20.004;2023-10-08T13:19:41;98830.48;;;13.87;47.85
56568;BME280;42456;49.956;20.004;2023-10-08T13:22:08;98828.39;;;13.83;47.52
56568;BME280;42456;49.956;20.004;2023-10-08T13:24:35;98840.55;;;13.77;47.40
56568;BME280;42456;49.956;20.004;2023-10-08T13:27:02;98842.26;;;13.70;47.16
56568;BME280;42456;49.956;20.004;2023-10-08T13:29:46;98854.84;;;13.61;46.51
56568;BME280;42456;49.956;20.004;2023-10-08T13:32:13;98863.83;;;13.53;46.20
56568;BME280;42456;49.956;20.004;2023-10-08T13:34:44;98868.00;;;13.46;45.66
56568;BME280;42456;49.956;20.004;2023-10-08T13:37:13;98862.95;;;13.35;44.48